createdAt,value
2023-01-26T00:00:15.681Z,353.35
2023-01-26T00:01:15.740Z,355.24
2023-01-26T00:02:15.830Z,352.59
2023-01-26T00:03:15.930Z,353.35
2023-01-26T00:04:16.035Z,354.48
2023-01-26T00:05:16.082Z,351.84
2023-01-26T00:06:16.172Z,351.47
2023-01-26T00:07:16.251Z,352.59
2023-01-26T00:08:16.335Z,352.97
2023-01-26T00:09:16.441Z,352.22
2023-01-26T00:10:16.519Z,353.35
2023-01-26T00:11:16.581Z,351.84
2023-01-26T00:12:16.739Z,354.10
2023-01-26T00:13:16.769Z,351.47
2023-01-26T00:14:16.839Z,351.10
2023-01-26T00:15:16.924Z,352.22
2023-01-26T00:16:17.080Z,352.97
2023-01-26T00:17:17.059Z,352.97
2023-01-26T00:18:17.163Z,351.47
2023-01-26T00:19:17.231Z,352.97
2023-01-26T00:20:23.310Z,352.97
2023-01-26T00:21:17.409Z,354.10
2023-01-26T00:22:17.510Z,351.47
2023-01-26T00:23:17.591Z,353.35
2023-01-26T00:24:17.682Z,352.22
2023-01-26T00:25:17.746Z,352.22
2023-01-26T00:26:17.855Z,352.97
2023-01-26T00:27:17.936Z,353.35
2023-01-26T00:28:18.033Z,352.22
2023-01-26T00:29:18.103Z,351.84
2023-01-26T00:30:18.210Z,353.35
2023-01-26T00:31:18.342Z,351.47
2023-01-26T00:32:18.333Z,351.47
2023-01-26T00:33:18.448Z,352.97
2023-01-26T00:34:18.526Z,352.59
2023-01-26T00:35:18.589Z,353.35
2023-01-26T00:36:18.690Z,352.59
2023-01-26T00:37:18.772Z,351.84
2023-01-26T00:38:18.835Z,351.84
2023-01-26T00:39:18.930Z,352.97
2023-01-26T00:40:19.039Z,352.59
2023-01-26T00:41:19.106Z,354.10
2023-01-26T00:42:19.175Z,352.22
2023-01-26T00:43:19.251Z,352.22
2023-01-26T00:44:19.315Z,353.72
2023-01-26T00:45:19.390Z,351.47
2023-01-26T00:46:19.527Z,352.97
2023-01-26T00:47:19.561Z,351.47
2023-01-26T00:48:19.674Z,352.59
2023-01-26T00:49:19.737Z,351.47
2023-01-26T00:50:19.811Z,352.22
2023-01-26T00:51:26.212Z,350.72
2023-01-26T00:52:19.966Z,351.84
2023-01-26T00:53:20.060Z,354.48
2023-01-26T00:54:20.153Z,354.86
2023-01-26T00:55:20.227Z,351.47
2023-01-26T00:56:20.308Z,352.97
2023-01-26T00:57:20.410Z,354.86
2023-01-26T00:58:20.473Z,351.47
2023-01-26T00:59:20.565Z,351.47
2023-01-26T01:00:20.649Z,354.48
2023-01-26T01:01:20.732Z,352.22
2023-01-26T01:02:20.836Z,349.61
2023-01-26T01:03:20.896Z,353.35
2023-01-26T01:04:20.970Z,352.97
2023-01-26T01:05:21.063Z,354.48
2023-01-26T01:06:21.155Z,352.22
2023-01-26T01:07:21.248Z,352.59
2023-01-26T01:08:21.347Z,353.35
2023-01-26T01:09:21.405Z,352.59
2023-01-26T01:10:21.487Z,352.22
2023-01-26T01:11:21.563Z,354.48
2023-01-26T01:12:21.643Z,353.72
2023-01-26T01:13:21.747Z,352.59
2023-01-26T01:14:21.808Z,352.22
2023-01-26T01:15:21.906Z,353.35
2023-01-26T01:16:21.995Z,354.10
2023-01-26T01:17:22.069Z,353.72
2023-01-26T01:18:22.155Z,352.22
2023-01-26T01:19:22.268Z,352.97
2023-01-26T01:20:22.346Z,354.48
2023-01-26T01:21:22.424Z,351.84
2023-01-26T01:22:28.461Z,353.72
2023-01-26T01:23:22.577Z,353.72
2023-01-26T01:24:22.762Z,352.97
2023-01-26T01:25:22.749Z,352.22
2023-01-26T01:26:22.829Z,353.72
2023-01-26T01:27:22.881Z,351.47
2023-01-26T01:28:22.967Z,351.84
2023-01-26T01:29:23.053Z,352.59
2023-01-26T01:30:23.171Z,353.35
2023-01-26T01:31:23.364Z,351.47
2023-01-26T01:32:23.307Z,352.22
2023-01-26T01:33:23.389Z,351.84
2023-01-26T01:34:23.435Z,352.22
2023-01-26T01:35:23.543Z,351.84
2023-01-26T01:36:23.738Z,353.72
2023-01-26T01:37:23.669Z,352.59
2023-01-26T01:38:23.752Z,352.22
2023-01-26T01:39:23.835Z,351.84
2023-01-26T01:40:24.218Z,354.10
2023-01-26T01:41:24.019Z,351.84
2023-01-26T01:42:24.069Z,354.10
2023-01-26T01:43:24.133Z,352.97
2023-01-26T01:44:24.216Z,351.84
2023-01-26T01:45:24.291Z,352.59
2023-01-26T01:46:24.395Z,352.22
2023-01-26T01:47:24.479Z,352.59
2023-01-26T01:48:24.549Z,352.97
2023-01-26T01:49:24.652Z,354.10
2023-01-26T01:50:24.708Z,354.10
2023-01-26T01:51:24.801Z,354.86
2023-01-26T01:52:24.862Z,353.72
2023-01-26T01:53:31.242Z,352.22
2023-01-26T01:54:25.046Z,354.86
2023-01-26T01:55:25.112Z,352.59
2023-01-26T01:56:25.195Z,352.59
2023-01-26T01:57:25.294Z,352.22
2023-01-26T01:58:25.369Z,351.10
2023-01-26T01:59:25.531Z,354.10
2023-01-26T02:00:25.515Z,352.97
2023-01-26T02:01:25.608Z,352.22
2023-01-26T02:02:25.665Z,352.22
2023-01-26T02:03:25.723Z,352.97
2023-01-26T02:04:25.806Z,355.63
2023-01-26T02:05:25.924Z,354.48
2023-01-26T02:06:25.988Z,354.48
2023-01-26T02:07:26.075Z,353.35
2023-01-26T02:08:26.140Z,352.97
2023-01-26T02:09:26.229Z,352.97
2023-01-26T02:10:26.297Z,354.10
2023-01-26T02:11:26.384Z,353.72
2023-01-26T02:12:26.473Z,354.48
2023-01-26T02:13:26.526Z,353.72
2023-01-26T02:14:26.591Z,354.10
2023-01-26T02:15:26.658Z,355.24
2023-01-26T02:16:26.814Z,354.48
2023-01-26T02:17:26.795Z,354.10
2023-01-26T02:18:26.875Z,352.59
2023-01-26T02:19:26.981Z,355.63
2023-01-26T02:20:27.042Z,356.01
2023-01-26T02:21:27.115Z,354.10
2023-01-26T02:22:27.206Z,352.97
2023-01-26T02:23:27.276Z,354.10
2023-01-26T02:24:33.328Z,355.24
2023-01-26T02:25:27.446Z,354.10
2023-01-26T02:26:27.538Z,353.72
2023-01-26T02:27:27.646Z,354.10
2023-01-26T02:28:27.718Z,354.86
2023-01-26T02:29:27.800Z,354.10
2023-01-26T02:30:27.954Z,354.48
2023-01-26T02:31:28.027Z,355.24
2023-01-26T02:32:28.072Z,354.86
2023-01-26T02:33:28.157Z,354.48
2023-01-26T02:34:28.241Z,354.86
2023-01-26T02:35:28.319Z,354.86
2023-01-26T02:36:28.418Z,353.72
2023-01-26T02:37:28.484Z,354.86
2023-01-26T02:38:28.572Z,356.39
2023-01-26T02:39:28.637Z,354.86
2023-01-26T02:40:28.706Z,354.48
2023-01-26T02:41:28.795Z,354.86
2023-01-26T02:42:28.877Z,356.39
2023-01-26T02:43:28.971Z,355.24
2023-01-26T02:44:29.095Z,354.48
2023-01-26T02:45:29.153Z,354.10
2023-01-26T02:46:29.256Z,355.63
2023-01-26T02:47:29.319Z,354.10
2023-01-26T02:48:29.432Z,354.86
2023-01-26T02:49:29.563Z,356.01
2023-01-26T02:50:29.602Z,354.10
2023-01-26T02:51:29.680Z,353.72
2023-01-26T02:52:29.781Z,354.48
2023-01-26T02:53:29.852Z,353.72
2023-01-26T02:54:29.961Z,354.86
2023-01-26T02:55:36.286Z,356.01
2023-01-26T02:56:30.114Z,354.10
2023-01-26T02:57:30.186Z,353.35
2023-01-26T02:58:30.284Z,351.47
2023-01-26T02:59:30.377Z,354.10
2023-01-26T03:00:30.520Z,354.48
2023-01-26T03:01:32.549Z,354.86
2023-01-26T03:02:30.600Z,355.63
2023-01-26T03:03:30.690Z,354.10
2023-01-26T03:04:30.786Z,356.01
2023-01-26T03:05:30.852Z,355.63
2023-01-26T03:06:30.934Z,352.97
2023-01-26T03:07:31.036Z,355.24
2023-01-26T03:08:31.107Z,356.01
2023-01-26T03:09:31.158Z,355.24
2023-01-26T03:10:31.246Z,353.72
2023-01-26T03:11:31.324Z,354.86
2023-01-26T03:12:31.412Z,356.78
2023-01-26T03:13:31.524Z,356.01
2023-01-26T03:14:31.585Z,355.24
2023-01-26T03:15:31.672Z,354.48
2023-01-26T03:16:31.777Z,356.01
2023-01-26T03:17:31.841Z,354.86
2023-01-26T03:18:31.947Z,353.72
2023-01-26T03:19:32.059Z,353.35
2023-01-26T03:20:32.124Z,354.48
2023-01-26T03:21:32.230Z,357.16
2023-01-26T03:22:32.323Z,354.86
2023-01-26T03:23:32.382Z,355.24
2023-01-26T03:24:32.459Z,354.10
2023-01-26T03:25:32.548Z,356.39
2023-01-26T03:26:38.574Z,354.86
2023-01-26T03:27:32.671Z,354.48
2023-01-26T03:28:32.775Z,355.24
2023-01-26T03:29:32.852Z,354.10
2023-01-26T03:30:32.944Z,354.86
2023-01-26T03:31:33.058Z,354.48
2023-01-26T03:32:33.126Z,355.24
2023-01-26T03:33:33.219Z,355.63
2023-01-26T03:34:33.325Z,354.48
2023-01-26T03:35:33.379Z,356.01
2023-01-26T03:36:33.460Z,354.10
2023-01-26T03:37:33.533Z,355.24
2023-01-26T03:38:33.611Z,354.86
2023-01-26T03:39:33.724Z,356.01
2023-01-26T03:40:33.804Z,356.01
2023-01-26T03:41:33.864Z,353.72
2023-01-26T03:42:33.960Z,354.86
2023-01-26T03:43:34.079Z,355.63
2023-01-26T03:44:34.163Z,354.48
2023-01-26T03:45:34.222Z,353.72
2023-01-26T03:46:34.347Z,354.10
2023-01-26T03:47:34.383Z,357.16
2023-01-26T03:48:34.508Z,355.24
2023-01-26T03:49:34.569Z,355.63
2023-01-26T03:50:34.661Z,354.86
2023-01-26T03:51:34.746Z,354.86
2023-01-26T03:52:34.840Z,354.86
2023-01-26T03:53:34.954Z,354.48
2023-01-26T03:54:35.028Z,353.35
2023-01-26T03:55:35.086Z,357.16
2023-01-26T03:56:35.184Z,355.63
2023-01-26T03:57:41.210Z,356.01
2023-01-26T03:58:35.309Z,355.24
2023-01-26T03:59:35.391Z,354.86
2023-01-26T04:00:35.584Z,354.48
2023-01-26T04:01:35.557Z,354.48
2023-01-26T04:02:35.639Z,354.86
2023-01-26T04:03:35.701Z,355.24
2023-01-26T04:04:35.801Z,355.63
2023-01-26T04:05:35.893Z,355.24
2023-01-26T04:06:36.002Z,355.24
2023-01-26T04:07:36.083Z,355.24
2023-01-26T04:08:36.166Z,355.63
2023-01-26T04:09:36.247Z,354.48
2023-01-26T04:10:36.334Z,356.39
2023-01-26T04:11:36.418Z,354.48
2023-01-26T04:12:36.526Z,355.24
2023-01-26T04:13:36.583Z,355.63
2023-01-26T04:14:49.297Z,354.86
2023-01-26T04:15:36.787Z,354.86
2023-01-26T04:16:36.900Z,355.63
2023-01-26T04:17:36.969Z,356.39
2023-01-26T04:18:37.048Z,355.63
2023-01-26T04:19:37.111Z,355.24
2023-01-26T04:20:37.219Z,356.39
2023-01-26T04:21:37.301Z,356.78
2023-01-26T04:22:37.384Z,355.63
2023-01-26T04:23:37.486Z,356.01
2023-01-26T04:24:37.541Z,355.24
2023-01-26T04:25:37.626Z,355.24
2023-01-26T04:26:37.704Z,352.59
2023-01-26T04:27:37.749Z,354.48
2023-01-26T04:28:43.835Z,355.63
2023-01-26T04:29:37.941Z,355.63
2023-01-26T04:30:38.036Z,356.01
2023-01-26T04:31:38.072Z,354.48
2023-01-26T04:32:38.120Z,355.63
2023-01-26T04:33:38.192Z,356.01
2023-01-26T04:34:38.294Z,356.78
2023-01-26T04:35:38.348Z,356.01
2023-01-26T04:36:38.410Z,355.63
2023-01-26T04:37:38.509Z,356.78
2023-01-26T04:38:38.573Z,356.39
2023-01-26T04:39:38.652Z,356.01
2023-01-26T04:40:38.711Z,354.86
2023-01-26T04:41:40.685Z,352.97
2023-01-26T04:42:38.909Z,356.78
2023-01-26T04:43:38.982Z,356.39
2023-01-26T04:44:39.064Z,357.16
2023-01-26T04:45:39.217Z,356.39
2023-01-26T04:46:39.229Z,357.16
2023-01-26T04:47:39.330Z,356.39
2023-01-26T04:48:39.401Z,358.33
2023-01-26T04:49:39.483Z,355.24
2023-01-26T04:50:39.574Z,356.78
2023-01-26T04:51:39.640Z,356.39
2023-01-26T04:52:39.720Z,357.94
2023-01-26T04:53:39.816Z,357.16
2023-01-26T04:54:39.885Z,356.01
2023-01-26T04:55:39.970Z,354.10
2023-01-26T04:56:40.085Z,357.16
2023-01-26T04:57:40.127Z,357.16
2023-01-26T04:58:40.199Z,357.16
2023-01-26T04:59:46.258Z,359.10
2023-01-26T05:00:40.365Z,357.16
2023-01-26T05:01:40.452Z,357.55
2023-01-26T05:02:40.688Z,354.48
2023-01-26T05:03:40.624Z,356.39
2023-01-26T05:04:40.708Z,357.16
2023-01-26T05:05:40.809Z,357.16
2023-01-26T05:06:40.872Z,357.94
2023-01-26T05:07:40.964Z,356.01
2023-01-26T05:08:41.053Z,357.55
2023-01-26T05:09:41.112Z,357.55
2023-01-26T05:10:41.210Z,357.55
2023-01-26T05:11:41.292Z,357.16
2023-01-26T05:12:41.370Z,358.33
2023-01-26T05:13:41.471Z,358.71
2023-01-26T05:14:41.529Z,358.33
2023-01-26T05:15:41.633Z,357.94
2023-01-26T05:16:41.729Z,356.78
2023-01-26T05:17:41.770Z,356.01
2023-01-26T05:18:41.862Z,357.55
2023-01-26T05:19:41.939Z,357.55
2023-01-26T05:20:42.016Z,356.39
2023-01-26T05:21:42.084Z,355.63
2023-01-26T05:22:42.204Z,354.86
2023-01-26T05:23:42.259Z,356.01
2023-01-26T05:24:42.327Z,356.01
2023-01-26T05:25:42.429Z,357.94
2023-01-26T05:26:42.516Z,354.86
2023-01-26T05:27:42.594Z,356.01
2023-01-26T05:28:43.337Z,356.39
2023-01-26T05:29:42.761Z,356.39
2023-01-26T05:30:48.925Z,354.48
2023-01-26T05:31:42.970Z,355.24
2023-01-26T05:32:43.017Z,355.24
2023-01-26T05:33:43.105Z,355.24
2023-01-26T05:34:43.173Z,355.63
2023-01-26T05:35:43.236Z,356.39
2023-01-26T05:36:43.323Z,355.24
2023-01-26T05:37:43.383Z,354.48
2023-01-26T05:38:43.451Z,354.48
2023-01-26T05:39:43.538Z,354.86
2023-01-26T05:40:43.620Z,354.10
2023-01-26T05:41:43.757Z,354.86
2023-01-26T05:42:43.780Z,356.01
2023-01-26T05:43:43.876Z,352.97
2023-01-26T05:44:43.943Z,356.01
2023-01-26T05:45:44.075Z,353.72
2023-01-26T05:46:44.103Z,354.86
2023-01-26T05:47:44.203Z,353.72
2023-01-26T05:48:44.274Z,354.48
2023-01-26T05:49:44.337Z,352.59
2023-01-26T05:50:44.424Z,354.86
2023-01-26T05:51:44.521Z,356.01
2023-01-26T05:52:44.647Z,354.10
2023-01-26T05:53:44.693Z,353.72
2023-01-26T05:54:44.761Z,354.10
2023-01-26T05:55:44.828Z,354.10
2023-01-26T05:56:44.912Z,354.48
2023-01-26T05:57:44.994Z,353.72
2023-01-26T05:58:45.099Z,353.72
2023-01-26T05:59:45.212Z,353.72
2023-01-26T06:00:45.248Z,354.86
2023-01-26T06:01:51.387Z,353.35
2023-01-26T06:02:48.260Z,352.59
2023-01-26T06:03:45.507Z,354.48
2023-01-26T06:04:45.556Z,354.10
2023-01-26T06:05:45.651Z,354.48
2023-01-26T06:06:45.711Z,352.97
2023-01-26T06:07:45.804Z,353.72
2023-01-26T06:08:45.892Z,352.59
2023-01-26T06:09:46.001Z,352.59
2023-01-26T06:10:46.081Z,352.59
2023-01-26T06:11:46.150Z,353.72
2023-01-26T06:12:46.236Z,354.10
2023-01-26T06:13:46.319Z,354.10
2023-01-26T06:14:47.427Z,354.86
2023-01-26T06:15:46.521Z,353.72
2023-01-26T06:16:46.605Z,352.97
2023-01-26T06:17:46.684Z,352.22
2023-01-26T06:18:46.768Z,353.35
2023-01-26T06:19:46.867Z,351.47
2023-01-26T06:20:46.947Z,351.84
2023-01-26T06:21:47.069Z,352.97
2023-01-26T06:22:47.127Z,352.97
2023-01-26T06:23:47.235Z,353.72
2023-01-26T06:24:47.284Z,352.59
2023-01-26T06:25:47.377Z,351.84
2023-01-26T06:26:47.474Z,352.22
2023-01-26T06:27:47.542Z,351.47
2023-01-26T06:28:47.675Z,352.22
2023-01-26T06:29:47.682Z,352.59
2023-01-26T06:30:47.846Z,352.22
2023-01-26T06:31:47.871Z,352.59
2023-01-26T06:32:53.931Z,352.97
2023-01-26T06:33:48.012Z,349.61
2023-01-26T06:34:48.109Z,351.10
2023-01-26T06:35:48.178Z,352.97
2023-01-26T06:36:48.263Z,352.97
2023-01-26T06:37:48.349Z,352.22
2023-01-26T06:38:48.443Z,352.22
2023-01-26T06:39:48.511Z,353.35
2023-01-26T06:40:48.605Z,352.97
2023-01-26T06:41:48.664Z,352.59
2023-01-26T06:42:48.780Z,352.97
2023-01-26T06:43:48.871Z,352.97
2023-01-26T06:44:48.915Z,354.48
2023-01-26T06:45:49.043Z,353.72
2023-01-26T06:46:49.097Z,351.10
2023-01-26T06:47:49.184Z,354.10
2023-01-26T06:48:49.271Z,354.10
2023-01-26T06:49:49.398Z,352.22
2023-01-26T06:50:49.438Z,353.72
2023-01-26T06:51:49.538Z,351.10
2023-01-26T06:52:49.623Z,353.72
2023-01-26T06:53:49.739Z,353.72
2023-01-26T06:54:49.813Z,351.47
2023-01-26T06:55:49.896Z,352.59
2023-01-26T06:56:49.989Z,352.97
2023-01-26T06:57:50.064Z,351.84
2023-01-26T06:58:50.128Z,353.72
2023-01-26T06:59:50.229Z,352.22
2023-01-26T07:00:50.323Z,352.97
2023-01-26T07:01:50.386Z,352.22
2023-01-26T07:02:50.468Z,352.22
2023-01-26T07:03:56.499Z,351.84
2023-01-26T07:04:50.620Z,354.10
2023-01-26T07:05:50.703Z,352.59
2023-01-26T07:06:50.767Z,354.10
2023-01-26T07:07:50.843Z,352.97
2023-01-26T07:08:50.930Z,355.24
2023-01-26T07:09:51.002Z,353.35
2023-01-26T07:10:51.085Z,352.59
2023-01-26T07:11:51.168Z,352.22
2023-01-26T07:12:51.207Z,356.39
2023-01-26T07:13:51.301Z,363.05
2023-01-26T07:14:51.393Z,369.13
2023-01-26T07:15:51.445Z,376.70
2023-01-26T07:16:51.592Z,385.66
2023-01-26T07:17:51.584Z,391.28
2023-01-26T07:18:51.667Z,402.29
2023-01-26T07:19:51.741Z,410.90
2023-01-26T07:20:51.830Z,421.74
2023-01-26T07:21:51.912Z,424.40
2023-01-26T07:22:52.007Z,432.04
2023-01-26T07:23:52.101Z,437.96
2023-01-26T07:24:52.152Z,448.18
2023-01-26T07:25:52.229Z,451.19
2023-01-26T07:26:52.326Z,460.79
2023-01-26T07:27:52.460Z,464.61
2023-01-26T07:28:52.472Z,473.79
2023-01-26T07:29:52.537Z,476.47
2023-01-26T07:30:52.621Z,481.60
2023-01-26T07:31:52.717Z,491.46
2023-01-26T07:32:52.782Z,496.18
2023-01-26T07:33:52.859Z,501.74
2023-01-26T07:34:58.964Z,508.19
2023-01-26T07:35:52.987Z,515.21
2023-01-26T07:36:53.063Z,517.59
2023-01-26T07:37:53.124Z,521.60
2023-01-26T07:38:53.224Z,521.60
2023-01-26T07:39:53.292Z,530.25
2023-01-26T07:40:53.406Z,537.03
2023-01-26T07:41:53.460Z,535.32
2023-01-26T07:42:53.551Z,540.05
2023-01-26T07:43:53.655Z,545.32
2023-01-26T07:44:53.726Z,548.43
2023-01-26T07:45:53.840Z,553.40
2023-01-26T07:46:53.989Z,551.58
2023-01-26T07:47:53.953Z,556.15
2023-01-26T07:48:54.044Z,557.07
2023-01-26T07:49:54.118Z,564.56
2023-01-26T07:50:54.203Z,561.26
2023-01-26T07:51:54.301Z,565.99
2023-01-26T07:52:54.353Z,572.26
2023-01-26T07:53:54.440Z,571.28
2023-01-26T07:54:54.504Z,579.16
2023-01-26T07:55:54.580Z,576.68
2023-01-26T07:56:54.691Z,574.70
2023-01-26T07:57:54.745Z,568.38
2023-01-26T07:58:54.827Z,566.94
2023-01-26T07:59:54.913Z,565.04
2023-01-26T08:00:54.977Z,562.20
2023-01-26T08:01:55.126Z,558.46
2023-01-26T08:02:55.200Z,556.15
2023-01-26T08:03:55.226Z,555.23
2023-01-26T08:04:55.399Z,554.31
2023-01-26T08:06:01.381Z,555.69
2023-01-26T08:06:55.481Z,552.49
2023-01-26T08:07:55.571Z,553.40
2023-01-26T08:08:55.633Z,549.33
2023-01-26T08:09:55.739Z,550.68
2023-01-26T08:10:55.809Z,550.23
2023-01-26T08:11:55.912Z,547.98
2023-01-26T08:12:56.011Z,546.65
2023-01-26T08:13:56.144Z,542.23
2023-01-26T08:14:56.184Z,541.80
2023-01-26T08:15:56.252Z,539.62
2023-01-26T08:16:56.347Z,542.23
2023-01-26T08:17:56.420Z,538.76
2023-01-26T08:18:56.612Z,538.32
2023-01-26T08:19:56.635Z,534.04
2023-01-26T08:20:56.689Z,532.35
2023-01-26T08:21:56.770Z,531.51
2023-01-26T08:22:58.025Z,529.41
2023-01-26T08:23:57.008Z,529.00
2023-01-26T08:24:57.086Z,530.25
2023-01-26T08:25:57.155Z,529.41
2023-01-26T08:26:57.218Z,522.01
2023-01-26T08:27:57.336Z,520.39
2023-01-26T08:28:57.395Z,520.80
2023-01-26T08:29:57.504Z,516.79
2023-01-26T08:30:57.635Z,518.79
2023-01-26T08:31:57.675Z,516.79
2023-01-26T08:32:57.733Z,516.00
2023-01-26T08:33:57.854Z,514.42
2023-01-26T08:34:57.934Z,511.67
2023-01-26T08:35:58.037Z,508.96
2023-01-26T08:37:04.082Z,510.51
2023-01-26T08:37:58.155Z,508.19
2023-01-26T08:38:58.210Z,505.89
2023-01-26T08:39:58.304Z,506.27
2023-01-26T08:40:58.388Z,502.49
2023-01-26T08:41:58.603Z,499.87
2023-01-26T08:42:58.581Z,501.74
2023-01-26T08:43:58.648Z,496.91
2023-01-26T08:44:58.708Z,496.91
2023-01-26T08:45:58.873Z,493.27
2023-01-26T08:46:58.877Z,492.90
2023-01-26T08:47:58.993Z,493.63
2023-01-26T08:49:00.485Z,490.03
2023-01-26T08:49:59.272Z,490.74
2023-01-26T08:50:59.214Z,488.96
2023-01-26T08:51:59.268Z,489.31
2023-01-26T08:52:59.362Z,486.13
2023-01-26T08:53:59.451Z,486.13
2023-01-26T08:54:59.515Z,484.38
2023-01-26T08:55:59.599Z,481.60
2023-01-26T08:56:59.708Z,479.53
2023-01-26T08:57:59.741Z,478.51
2023-01-26T08:58:59.856Z,480.22
2023-01-26T08:59:59.926Z,479.53
2023-01-26T09:01:00.030Z,477.15
2023-01-26T09:02:00.261Z,474.79
2023-01-26T09:03:01.169Z,477.83
2023-01-26T09:04:00.268Z,480.22
2023-01-26T09:05:00.353Z,483.68
2023-01-26T09:06:00.432Z,483.68
2023-01-26T09:07:00.457Z,484.03
2023-01-26T09:08:06.588Z,483.33
2023-01-26T09:09:00.650Z,478.85
2023-01-26T09:10:00.737Z,480.56
2023-01-26T09:11:00.779Z,479.19
2023-01-26T09:12:00.877Z,479.53
2023-01-26T09:13:00.964Z,477.15
2023-01-26T09:14:01.051Z,475.12
2023-01-26T09:15:01.156Z,473.79
2023-01-26T09:16:01.193Z,472.79
2023-01-26T09:17:01.259Z,472.79
2023-01-26T09:18:01.358Z,472.12
2023-01-26T09:19:01.496Z,474.12
2023-01-26T09:20:01.556Z,471.13
2023-01-26T09:21:01.600Z,469.81
2023-01-26T09:22:01.840Z,467.20
2023-01-26T09:23:01.855Z,468.50
2023-01-26T09:24:01.908Z,465.25
2023-01-26T09:25:01.929Z,463.65
2023-01-26T09:26:02.179Z,463.65
2023-01-26T09:27:02.273Z,462.37
2023-01-26T09:28:04.587Z,462.37
2023-01-26T09:29:02.242Z,460.79
2023-01-26T09:30:02.390Z,457.96
2023-01-26T09:31:02.492Z,459.21
2023-01-26T09:32:02.547Z,454.24
2023-01-26T09:33:02.620Z,459.21
2023-01-26T09:34:03.528Z,454.86
2023-01-26T09:35:02.714Z,454.24
2023-01-26T09:36:02.830Z,457.02
2023-01-26T09:37:02.914Z,453.33
2023-01-26T09:38:03.036Z,450.89
2023-01-26T09:39:09.109Z,448.48
2023-01-26T09:40:03.187Z,448.18
2023-01-26T09:41:03.254Z,446.99
2023-01-26T09:42:03.307Z,447.89
2023-01-26T09:43:03.477Z,449.38
2023-01-26T09:44:03.478Z,446.10
2023-01-26T09:45:03.525Z,443.45
2023-01-26T09:46:03.646Z,444.92
2023-01-26T09:47:03.670Z,440.54
2023-01-26T09:48:03.735Z,442.28
2023-01-26T09:49:03.887Z,438.24
2023-01-26T09:50:03.916Z,441.70
2023-01-26T09:51:03.979Z,439.68
2023-01-26T09:52:04.052Z,440.83
2023-01-26T09:53:04.188Z,438.53
2023-01-26T09:54:04.280Z,438.53
2023-01-26T09:55:04.331Z,438.53
2023-01-26T09:56:04.398Z,435.97
2023-01-26T09:57:04.489Z,434.56
2023-01-26T09:58:04.557Z,435.12
2023-01-26T09:59:04.646Z,434.28
2023-01-26T10:00:04.767Z,435.12
2023-01-26T10:01:04.881Z,432.60
2023-01-26T10:02:04.900Z,433.16
2023-01-26T10:03:05.019Z,430.93
2023-01-26T10:04:05.084Z,430.93
2023-01-26T10:05:05.173Z,431.21
2023-01-26T10:06:05.297Z,427.64
2023-01-26T10:07:05.388Z,427.64
2023-01-26T10:08:05.494Z,428.46
2023-01-26T10:09:05.547Z,427.37
2023-01-26T10:10:11.568Z,427.64
2023-01-26T10:11:05.743Z,424.40
2023-01-26T10:12:05.751Z,426.56
2023-01-26T10:13:05.834Z,422.53
2023-01-26T10:14:05.909Z,426.02
2023-01-26T10:15:05.978Z,430.66
2023-01-26T10:16:06.085Z,432.04
2023-01-26T10:17:06.159Z,432.32
2023-01-26T10:18:06.264Z,434.84
2023-01-26T10:19:06.298Z,432.88
2023-01-26T10:20:06.403Z,433.16
2023-01-26T10:21:06.449Z,434.84
2023-01-26T10:22:06.597Z,432.32
2023-01-26T10:23:06.664Z,429.01
2023-01-26T10:24:06.789Z,428.73
2023-01-26T10:25:06.807Z,430.11
2023-01-26T10:26:06.876Z,428.73
2023-01-26T10:27:06.979Z,428.46
2023-01-26T10:28:07.035Z,424.94
2023-01-26T10:29:07.086Z,426.56
2023-01-26T10:30:07.183Z,424.40
2023-01-26T10:31:07.368Z,426.29
2023-01-26T10:32:07.342Z,425.21
2023-01-26T10:33:07.449Z,424.94
2023-01-26T10:34:07.536Z,422.53
2023-01-26T10:35:07.578Z,422.80
2023-01-26T10:36:07.660Z,420.94
2023-01-26T10:37:07.753Z,422.53
2023-01-26T10:38:07.831Z,423.87
2023-01-26T10:39:07.924Z,422.00
2023-01-26T10:40:08.015Z,420.15
2023-01-26T10:41:14.054Z,419.63
2023-01-26T10:42:08.159Z,421.21
2023-01-26T10:43:08.251Z,419.37
2023-01-26T10:44:08.390Z,415.99
2023-01-26T10:45:08.382Z,418.85
2023-01-26T10:46:08.559Z,417.02
2023-01-26T10:47:08.564Z,415.99
2023-01-26T10:48:08.652Z,415.22
2023-01-26T10:49:08.740Z,414.71
2023-01-26T10:50:09.567Z,413.69
2023-01-26T10:51:08.934Z,414.96
2023-01-26T10:52:09.015Z,414.45
2023-01-26T10:53:09.081Z,413.94
2023-01-26T10:54:09.185Z,416.51
2023-01-26T10:55:09.761Z,415.99
2023-01-26T10:56:09.353Z,414.71
2023-01-26T10:57:09.459Z,411.41
2023-01-26T10:58:09.584Z,412.42
2023-01-26T10:59:09.655Z,413.43
2023-01-26T11:00:09.741Z,412.92
2023-01-26T11:01:09.822Z,412.67
2023-01-26T11:02:09.925Z,412.42
2023-01-26T11:03:10.066Z,409.65
2023-01-26T11:04:10.217Z,411.66
2023-01-26T11:05:10.756Z,406.43
2023-01-26T11:06:11.061Z,407.66
2023-01-26T11:07:10.323Z,410.15
2023-01-26T11:08:10.403Z,408.65
2023-01-26T11:09:10.527Z,406.43
2023-01-26T11:10:10.597Z,405.69
2023-01-26T11:11:10.660Z,404.96
2023-01-26T11:12:16.686Z,404.96
2023-01-26T11:13:10.823Z,402.53
2023-01-26T11:14:10.914Z,401.57
2023-01-26T11:15:11.289Z,401.33
2023-01-26T11:16:11.113Z,405.69
2023-01-26T11:17:11.156Z,408.16
2023-01-26T11:18:11.244Z,415.22
2023-01-26T11:19:11.341Z,420.15
2023-01-26T11:20:11.394Z,421.47
2023-01-26T11:21:11.489Z,423.60
2023-01-26T11:22:11.528Z,425.21
2023-01-26T11:23:11.624Z,423.87
2023-01-26T11:24:11.727Z,426.02
2023-01-26T11:25:12.120Z,425.48
2023-01-26T11:26:11.875Z,426.29
2023-01-26T11:27:11.975Z,423.07
2023-01-26T11:28:12.019Z,423.60
2023-01-26T11:29:12.099Z,425.21
2023-01-26T11:30:12.200Z,430.38
2023-01-26T11:31:12.400Z,428.46
2023-01-26T11:32:12.351Z,429.83
2023-01-26T11:33:12.414Z,429.83
2023-01-26T11:34:12.492Z,428.46
2023-01-26T11:35:13.031Z,425.75
2023-01-26T11:36:12.650Z,428.19
2023-01-26T11:37:12.758Z,429.01
2023-01-26T11:38:12.845Z,428.19
2023-01-26T11:39:12.896Z,427.37
2023-01-26T11:40:12.979Z,426.29
2023-01-26T11:41:13.088Z,428.46
2023-01-26T11:42:13.171Z,424.67
2023-01-26T11:43:19.628Z,422.80
2023-01-26T11:44:13.331Z,424.94
2023-01-26T11:45:13.690Z,421.47
2023-01-26T11:46:13.484Z,422.80
2023-01-26T11:47:13.572Z,421.47
2023-01-26T11:48:13.675Z,421.21
2023-01-26T11:49:13.802Z,422.00
2023-01-26T11:50:13.849Z,421.74
2023-01-26T11:51:13.898Z,418.06
2023-01-26T11:52:13.991Z,421.21
2023-01-26T11:53:14.061Z,417.80
2023-01-26T11:54:14.124Z,417.54
2023-01-26T11:55:14.396Z,416.51
2023-01-26T11:56:14.290Z,413.69
2023-01-26T11:57:14.410Z,416.77
2023-01-26T11:58:14.503Z,417.02
2023-01-26T11:59:14.582Z,414.71
2023-01-26T12:00:28.718Z,413.94
2023-01-26T12:01:14.710Z,414.71
2023-01-26T12:02:14.811Z,413.94
2023-01-26T12:03:14.903Z,411.41
2023-01-26T12:04:14.944Z,415.22
2023-01-26T12:05:15.004Z,414.20
2023-01-26T12:06:16.023Z,412.16
2023-01-26T12:07:15.163Z,410.40
2023-01-26T12:08:15.245Z,410.15
2023-01-26T12:09:15.341Z,412.42
2023-01-26T12:10:15.394Z,410.40
2023-01-26T12:11:15.520Z,407.17
2023-01-26T12:12:15.522Z,407.91
2023-01-26T12:13:15.612Z,408.41
2023-01-26T12:14:21.703Z,407.42
2023-01-26T12:15:15.771Z,408.16
2023-01-26T12:16:15.930Z,405.45
2023-01-26T12:17:18.608Z,404.23
2023-01-26T12:18:16.025Z,406.43
2023-01-26T12:19:16.147Z,405.45
2023-01-26T12:20:16.252Z,403.26
2023-01-26T12:21:16.291Z,403.26
2023-01-26T12:22:16.411Z,402.05
2023-01-26T12:23:16.475Z,402.53
2023-01-26T12:24:40.834Z,399.90
2023-01-26T12:25:19.745Z,398.24
2023-01-26T12:26:16.717Z,398.95
2023-01-26T12:27:16.802Z,400.37
2023-01-26T12:28:16.895Z,399.18
2023-01-26T12:29:17.001Z,399.90